Date,TemperatureHighF,TemperatureAvgF,TemperatureLowF,DewpointHighF,DewpointAvgF,DewpointLowF,HumidityHigh,HumidityAvg,HumidityLow,PressureMaxIn,PressureMinIn,WindSpeedMaxMPH,WindSpeedAvgMPH,GustSpeedMaxMPH,PrecipitationSumIn
2013-1-1,52.2,45.3,38.9,44.3,37.3,32.0,89,74,60,30.09,29.92,11,1,23,0.05
2013-1-2,54.8,42.6,35.6,43.7,36.4,31.2,90,80,55,30.35,30.09,4,1,7,0.02
2013-1-3,58.0,43.7,34.6,32.9,28.5,23.1,86,59,26,30.63,30.35,6,2,14,0.00
2013-1-4,59.0,43.3,30.7,40.1,33.0,25.2,83,68,46,30.62,30.44,3,0,6,0.00
2013-1-5,68.4,48.4,36.3,43.5,36.1,30.7,82,65,31,30.44,30.23,3,0,6,0.00
2013-1-6,63.1,47.5,35.3,46.9,36.3,28.5,79,66,44,30.30,30.23,4,1,6,0.00
2013-1-7,66.3,47.5,35.9,47.7,38.6,30.9,88,73,34,30.26,30.15,4,0,6,0.00
2013-1-8,59.0,43.9,32.2,47.9,38.7,29.0,91,82,65,30.31,30.23,4,0,7,0.02
2013-1-9,48.8,43.8,35.9,46.6,41.1,33.4,92,90,78,30.25,30.08,5,1,7,0.01
2013-1-10,58.0,46.2,37.9,43.6,37.4,33.2,85,72,52,30.11,30.04,6,2,12,0.00
2013-1-11,57.2,44.0,34.0,43.3,36.9,30.0,88,77,55,30.16,30.08,5,1,7,0.00
2013-1-12,53.8,40.6,31.2,40.9,33.9,27.5,88,78,53,30.11,29.87,2,0,5,0.01
2013-1-13,47.0,42.8,37.5,41.1,38.4,34.3,88,84,78,29.87,29.72,6,1,11,0.13
2013-1-14,49.1,39.9,33.8,42.2,34.4,30.0,90,81,62,29.95,29.87,7,1,11,0.01
2013-1-15,50.8,39.1,30.4,36.4,27.7,17.2,89,67,31,29.95,29.74,10,1,16,0.02
2013-1-16,41.9,33.8,28.7,35.5,26.1,20.2,79,73,64,29.86,29.58,5,1,9,0.00
2013-1-17,51.0,41.4,33.4,40.5,34.5,29.2,87,77,59,29.78,29.65,5,1,10,0.00
2013-1-18,49.5,46.8,44.5,42.4,38.9,35.4,85,74,65,29.65,29.40,6,2,11,0.00
2013-1-19,58.7,48.9,41.8,52.1,44.7,37.7,90,85,69,29.38,28.93,15,4,29,0.12
2013-1-20,56.0,46.8,38.3,45.7,40.3,35.1,89,79,56,29.50,29.02,10,2,12,0.01
2013-1-21,52.3,42.5,34.6,45.5,36.2,29.7,88,79,60,29.81,29.47,10,2,12,0.09
2013-1-22,53.3,40.8,29.8,37.7,29.7,24.0,88,68,32,29.80,29.51,13,3,27,0.01
2013-1-23,48.3,41.8,33.8,36.7,32.4,28.5,84,70,53,29.73,29.46,8,0,12,0.00
2013-1-24,50.4,40.1,31.5,36.4,32.4,27.2,87,75,54,29.75,29.58,5,1,11,0.00
2013-1-25,59.0,39.8,25.4,33.5,27.2,20.3,87,66,25,29.87,29.73,4,0,6,0.00
2013-1-26,54.2,42.5,31.5,40.9,33.7,24.2,86,71,53,30.06,29.71,6,1,13,0.00
2013-1-27,52.9,42.2,32.4,42.4,36.4,29.2,90,80,60,30.06,29.75,3,0,5,0.01
2013-1-28,57.3,47.8,40.6,47.7,40.6,35.2,91,77,54,30.29,29.81,8,2,12,0.11
2013-1-29,59.8,45.6,35.2,44.2,38.4,31.1,89,77,52,30.33,30.26,5,1,8,0.01
2013-1-30,64.8,47.4,33.1,42.8,36.1,28.2,85,68,35,30.31,30.18,3,0,6,0.00
2013-1-31,67.8,52.0,41.3,48.7,42.5,35.6,84,71,49,30.39,30.28,6,1,10,0.00
2013-2-1,66.1,52.5,40.3,51.9,43.3,36.4,90,72,49,30.29,29.63,8,1,22,0.00
2013-2-2,54.8,48.9,39.5,46.2,36.6,19.9,88,64,33,29.83,29.49,9,2,14,0.09
2013-2-3,56.7,46.9,36.9,18.3,8.5,-5.3,46,23,8,30.26,29.83,17,6,28,0.00
2013-2-4,57.5,41.2,27.6,31.9,24.5,17.4,73,54,26,30.31,30.22,2,0,7,0.00
2013-2-5,61.3,46.1,34.1,44.4,37.6,28.5,85,73,51,30.24,29.84,7,1,13,0.00
2013-2-6,55.4,42.8,33.1,41.0,32.4,25.5,87,70,33,29.86,29.66,8,1,15,0.03
2013-2-7,48.3,40.4,30.9,31.7,19.4,10.8,86,48,23,30.02,29.76,20,5,39,0.00
2013-2-8,44.2,37.3,30.3,31.2,25.1,18.7,68,61,52,30.02,29.89,4,0,11,0.00
2013-2-9,49.6,39.3,28.4,30.9,24.2,15.8,72,56,28,30.10,29.99,8,2,14,0.01
2013-2-10,54.1,43.8,30.4,38.3,31.4,25.0,82,63,36,30.04,29.55,13,2,27,0.00
2013-2-11,52.0,45.8,40.8,36.2,33.4,29.4,74,62,48,29.60,29.48,9,1,15,0.00
2013-2-12,54.8,45.2,36.5,34.5,30.1,23.9,74,57,31,29.91,29.54,7,2,18,0.00
2013-2-13,55.7,42.5,32.8,36.9,32.2,26.2,81,68,45,30.10,29.91,5,2,10,0.00
2013-2-14,58.4,46.0,35.6,43.0,36.7,30.0,83,71,45,30.16,30.09,6,1,13,0.00
2013-2-15,56.9,46.7,34.4,45.8,37.3,30.9,90,71,49,30.16,30.05,7,2,11,0.00
2013-2-16,50.8,47.6,43.1,43.9,39.8,35.0,81,74,60,30.15,30.08,5,1,12,0.00
2013-2-17,52.3,48.5,45.4,43.3,40.8,37.3,81,75,67,30.08,29.91,5,1,7,0.00
2013-2-18,52.9,49.0,47.1,46.2,44.1,42.5,86,83,74,30.01,29.86,7,1,12,0.02
2013-2-19,53.5,46.7,37.3,45.9,40.0,33.2,89,78,62,30.02,29.92,7,2,16,0.00
2013-2-20,59.6,43.3,29.8,43.8,35.4,26.7,90,76,43,29.94,29.82,6,1,11,0.01
2013-2-21,54.4,44.9,34.9,43.8,38.7,31.4,90,80,63,29.86,29.64,6,1,10,0.02
2013-2-22,46.8,39.0,35.0,42.2,35.8,32.1,90,88,83,29.64,29.57,5,2,12,0.34
2013-2-23,43.5,35.3,26.1,34.4,25.0,15.7,89,67,40,29.83,29.48,8,2,15,0.02
2013-2-24,43.2,32.1,21.0,29.8,21.3,16.1,82,66,40,29.97,29.82,4,0,8,0.00
2013-2-25,46.7,35.0,29.0,29.9,25.3,16.0,84,70,30,30.11,29.95,7,1,13,0.00
2013-2-26,50.8,36.5,27.0,33.1,26.4,17.3,87,70,29,30.17,30.09,6,1,8,0.00
2013-2-27,51.0,41.3,30.7,35.5,30.2,24.5,81,65,51,30.20,30.12,8,2,15,0.00
2013-2-28,47.4,43.0,37.5,42.8,38.7,34.1,88,85,76,30.16,29.98,7,3,20,0.60
2013-3-1,47.3,44.3,42.5,40.6,37.7,31.5,89,78,54,29.98,29.85,15,6,30,0.76
2013-3-2,57.2,47.9,38.9,41.8,36.2,30.2,85,65,47,30.08,29.93,6,2,13,0.00
2013-3-3,59.9,45.1,33.1,43.4,36.6,29.7,89,74,43,30.07,29.92,8,2,21,0.01
2013-3-4,55.4,46.9,35.2,48.1,41.1,31.1,86,81,64,29.97,29.83,7,2,12,0.03
2013-3-5,54.4,52.8,51.3,50.6,49.6,47.6,92,89,84,29.82,29.46,14,6,23,1.49
2013-3-6,55.3,53.5,51.9,53.0,51.0,49.1,92,91,90,29.50,29.28,16,4,30,0.57
2013-3-7,62.9,54.6,50.4,54.0,50.1,47.9,92,85,69,29.64,29.44,14,2,16,0.01
2013-3-8,66.4,58.0,50.8,50.6,47.2,43.9,84,68,47,29.70,29.42,12,2,27,0.00
2013-3-9,67.9,56.7,48.2,47.3,44.0,35.6,87,65,31,29.65,29.57,13,2,21,0.00
2013-3-10,68.1,57.2,47.4,45.0,40.4,33.6,79,56,28,29.62,29.45,9,2,19,0.00
2013-3-11,64.3,51.9,41.3,43.7,37.9,31.8,81,62,31,29.58,29.46,11,2,21,0.00
2013-3-12,56.3,49.6,40.8,45.6,40.9,37.3,89,73,57,29.56,29.45,12,3,22,0.48
2013-3-13,43.9,40.3,34.7,40.4,36.0,27.2,91,85,64,29.58,29.39,6,1,10,0.02
2013-3-14,52.2,39.4,28.7,31.8,23.4,14.7,87,58,23,29.79,29.58,9,2,23,0.01
2013-3-15,52.2,39.3,27.0,33.3,25.5,19.2,81,60,31,30.05,29.79,9,2,19,0.00
2013-3-16,56.0,43.9,31.8,44.5,36.0,27.3,86,75,45,30.05,29.80,16,6,26,0.00
2013-3-17,56.9,52.1,48.2,45.6,44.0,38.5,86,75,52,29.79,29.41,12,5,20,0.00
2013-3-18,61.3,50.0,40.1,46.6,40.2,25.6,90,72,26,29.73,29.37,14,2,29,0.06
2013-3-19,58.7,47.7,38.3,45.1,39.1,33.9,86,73,44,29.76,29.56,10,2,14,0.00
2013-3-20,58.4,49.4,44.5,49.1,43.9,39.0,89,82,61,30.05,29.55,10,2,14,0.20
2013-3-21,64.8,52.7,42.5,46.5,42.4,38.2,89,70,42,30.08,29.87,14,3,26,0.01
2013-3-22,65.3,51.9,40.8,51.0,43.3,35.9,88,74,52,29.86,29.62,16,4,30,0.00
2013-3-23,59.0,52.4,44.9,50.6,46.9,41.3,89,82,66,29.69,29.57,7,2,10,0.00
2013-3-24,59.0,51.7,46.2,50.3,45.9,43.0,91,81,65,29.61,29.50,6,1,16,0.00
2013-3-25,62.9,50.4,38.6,51.3,42.4,35.6,91,76,48,29.66,29.56,7,2,14,0.01
2013-3-26,58.7,51.2,44.2,46.5,42.6,38.5,85,73,56,29.62,29.53,7,1,10,0.00
2013-3-27,52.8,51.0,49.4,49.4,47.8,46.6,90,89,87,29.68,29.56,3,0,8,0.01
2013-3-28,65.8,55.1,50.2,54.4,50.4,47.7,92,85,60,29.80,29.61,7,1,8,0.38
2013-3-29,63.9,57.8,50.4,51.0,48.4,46.1,89,72,54,29.81,29.55,9,2,12,0.01
2013-3-30,60.5,55.2,46.1,52.1,48.3,42.1,87,78,66,29.75,29.46,10,3,19,0.05
2013-3-31,58.6,49.3,39.3,50.7,43.8,36.3,90,82,66,29.75,29.62,9,2,18,0.02
2013-4-1,52.0,49.0,46.5,49.2,45.8,43.6,90,89,84,29.61,29.39,5,1,14,0.51
2013-4-2,62.3,49.3,39.1,49.3,43.3,36.4,92,81,46,29.76,29.59,7,1,11,0.19
2013-4-3,57.6,49.4,38.6,48.5,44.2,35.6,91,83,69,29.77,29.62,15,3,26,0.01
2013-4-4,57.0,51.1,47.0,51.8,46.3,43.7,90,84,70,29.61,29.48,6,1,13,0.03
2013-4-5,49.1,47.0,43.1,45.7,42.9,39.2,90,86,76,29.79,29.57,5,1,8,0.18
2013-4-6,52.8,45.6,40.9,43.6,38.7,34.3,89,78,50,29.92,29.76,9,2,13,0.06
2013-4-7,57.5,49.0,38.0,44.6,40.8,34.8,89,75,52,29.98,29.83,10,3,18,0.01
2013-4-8,59.3,48.9,41.3,47.3,41.4,37.1,89,76,51,29.85,29.76,9,1,13,0.00
2013-4-9,70.3,53.5,37.2,46.6,41.1,33.8,89,66,31,29.94,29.70,16,3,24,0.01
2013-4-10,64.0,54.3,44.6,51.6,45.4,40.4,87,73,47,30.00,29.88,18,3,25,0.00
2013-4-11,74.6,63.1,52.8,53.2,49.0,45.6,84,62,41,29.94,29.65,14,4,25,0.00
2013-4-12,73.7,59.1,49.9,51.3,46.6,35.3,88,67,26,30.05,29.82,10,3,20,0.00
2013-4-13,67.4,56.1,46.2,48.5,44.6,41.0,85,68,42,30.23,30.05,11,2,21,0.00
2013-4-14,70.6,56.4,40.9,53.4,43.0,35.7,90,65,30,30.25,30.21,13,3,28,0.01
2013-4-15,70.4,57.2,42.2,50.3,42.2,37.0,84,60,38,30.23,30.10,12,3,23,0.00
2013-4-16,77.0,61.8,48.8,54.4,48.7,43.3,85,64,41,30.17,30.11,7,1,13,0.00
2013-4-17,78.5,64.5,51.0,54.4,47.1,39.0,85,58,27,30.19,30.09,10,3,23,0.00
2013-4-18,72.7,57.3,48.2,52.6,46.5,43.0,85,69,44,30.17,30.10,11,2,16,0.00
2013-4-19,64.7,53.6,48.2,53.5,46.0,39.5,89,77,49,30.18,30.08,5,1,13,0.26
2013-4-20,64.7,51.4,38.5,47.7,40.3,30.8,91,70,28,30.17,30.06,9,2,13,0.01
2013-4-21,62.7,53.0,43.3,46.2,42.6,37.3,86,69,42,30.12,30.02,9,3,18,0.00
2013-4-22,64.0,55.7,48.8,48.7,44.7,41.2,85,68,44,30.09,29.98,11,2,16,0.00
2013-4-23,69.9,54.8,39.3,48.6,40.1,35.5,88,62,30,30.24,30.09,6,2,14,0.00
2013-4-24,66.3,57.7,47.9,46.6,42.9,39.3,76,59,40,30.32,30.23,6,2,19,0.00
2013-4-25,60.4,58.2,56.2,53.1,49.0,41.4,89,72,55,30.25,30.10,5,2,11,0.49
2013-4-26,66.4,59.6,55.1,53.0,51.6,49.5,89,76,56,30.11,29.82,7,3,15,0.03
2013-4-27,56.5,50.2,45.5,52.2,46.8,42.7,91,88,82,29.82,29.66,5,0,12,0.54
2013-4-28,47.6,45.6,44.2,43.4,39.7,36.5,86,80,70,29.91,29.77,5,0,15,0.06
2013-4-29,54.5,50.2,44.9,50.6,46.6,40.7,89,88,85,29.91,29.77,5,1,10,0.37
2013-4-30,65.2,57.0,51.9,55.8,50.9,46.6,91,81,60,29.96,29.78,10,2,20,0.05
2013-5-1,67.6,55.2,42.5,49.6,43.3,31.3,89,67,29,30.02,29.95,13,3,22,0.01
2013-5-2,67.6,55.3,43.5,51.1,45.7,39.9,90,72,49,30.02,29.96,10,2,21,0.00
2013-5-3,67.1,55.8,42.5,50.0,45.8,38.9,89,71,43,30.08,30.00,7,2,14,0.01
2013-5-4,69.4,59.1,50.5,53.8,47.8,44.0,87,68,44,30.11,30.05,11,2,14,0.00
2013-5-5,72.8,59.5,45.5,51.8,45.8,38.2,87,64,30,30.11,30.05,11,2,14,0.00
2013-5-6,76.0,60.7,45.7,56.3,48.6,41.5,88,67,33,30.09,30.00,9,2,15,0.00
2013-5-7,77.7,65.7,55.3,59.9,49.4,41.0,88,60,30,30.03,29.95,9,1,16,0.00
2013-5-8,78.6,65.9,55.3,56.9,51.4,41.7,85,62,33,30.00,29.90,8,1,16,0.06
2013-5-9,72.8,64.6,58.1,62.4,56.1,53.4,90,75,54,30.01,29.89,10,2,20,0.01
2013-5-10,63.2,59.2,54.7,56.7,51.4,47.4,89,76,57,30.10,29.93,3,1,8,0.04
2013-5-11,65.3,57.2,49.9,51.6,48.7,45.6,86,74,55,30.14,30.06,9,2,15,0.00
2013-5-12,66.6,57.6,49.6,52.1,48.4,45.6,87,73,55,30.18,30.11,9,2,15,0.00
2013-5-13,68.1,59.3,49.9,53.7,50.5,45.9,87,74,57,30.18,30.02,8,2,16,0.00
2013-5-14,68.6,58.1,47.9,57.5,51.7,44.2,89,80,60,30.03,29.70,12,3,19,0.02
2013-5-15,61.6,55.9,51.9,56.2,51.5,48.7,90,85,77,29.72,29.54,6,1,15,0.50
2013-5-16,52.6,49.9,47.3,49.5,47.0,44.8,92,90,81,29.57,29.47,4,0,6,0.22
2013-5-17,64.0,54.9,45.5,50.1,45.4,42.3,90,72,46,29.64,29.52,13,4,28,0.02
2013-5-18,66.1,57.8,52.0,54.4,45.4,37.5,89,66,36,29.76,29.51,19,7,27,0.24
2013-5-19,59.6,53.3,49.5,50.1,45.3,40.0,88,75,55,30.07,29.75,9,2,15,0.20
2013-5-20,62.9,54.2,49.5,51.6,47.2,44.3,89,78,51,30.10,30.04,3,0,9,0.14
2013-5-21,66.6,56.0,46.1,49.9,46.1,42.1,88,71,45,30.09,29.88,7,1,11,0.00
2013-5-22,73.7,61.7,49.4,52.0,48.6,45.2,87,64,41,29.93,29.80,9,2,14,0.00
2013-5-23,68.4,58.0,47.6,53.4,48.5,43.1,88,72,45,29.91,29.83,9,4,16,0.11
2013-5-24,56.5,52.7,48.8,50.7,46.8,41.8,89,81,64,29.99,29.87,9,2,12,0.02
2013-5-25,59.2,52.7,48.8,49.1,46.5,45.1,89,80,63,30.11,29.92,10,2,19,0.26
2013-5-26,63.7,53.2,40.5,51.6,46.3,37.8,92,78,59,30.12,29.97,13,3,25,0.01
2013-5-27,67.4,56.7,45.2,54.7,49.0,41.9,90,77,55,29.97,29.79,12,3,25,0.01
2013-5-28,69.8,53.5,45.7,55.0,48.1,42.4,90,83,48,29.83,29.66,7,1,14,0.66
2013-5-29,60.5,51.3,45.1,50.0,45.8,42.3,92,82,54,29.86,29.70,13,1,20,0.31
2013-5-30,64.3,53.8,41.1,50.5,45.5,38.1,90,75,50,29.88,29.85,8,1,14,0.01
2013-5-31,68.3,63.1,56.7,51.5,49.0,46.0,77,61,47,29.94,29.84,8,3,14,0.00
2013-6-1,79.8,65.6,53.6,54.4,47.0,34.2,87,57,20,30.00,29.88,7,1,14,0.00
2013-6-2,74.7,63.4,50.1,51.0,46.1,43.1,80,56,33,30.05,29.98,8,2,14,0.00
2013-6-3,73.0,61.6,48.8,51.9,48.3,43.5,84,64,42,30.05,29.99,8,2,16,0.00
2013-6-4,72.0,63.6,52.9,56.1,51.4,45.0,86,66,38,30.04,29.95,11,3,24,0.00
2013-6-5,74.2,63.0,49.5,55.6,50.5,45.7,89,66,39,29.99,29.91,12,4,23,0.00
2013-6-6,74.6,63.3,49.6,58.8,49.7,45.3,88,64,37,30.03,29.97,13,4,22,0.00
2013-6-7,79.6,66.2,52.0,55.3,49.7,40.2,88,60,25,30.03,29.95,16,4,27,0.00
2013-6-8,69.8,61.2,55.3,59.6,53.4,47.5,88,76,54,29.98,29.82,15,3,28,0.58
2013-6-9,71.5,60.5,49.6,55.6,49.9,45.6,88,70,47,29.88,29.72,14,4,20,0.00
2013-6-10,72.8,62.0,49.5,56.8,52.6,46.4,91,73,51,30.01,29.86,8,2,15,0.01
2013-6-11,78.3,66.8,54.2,59.1,55.2,50.4,89,69,46,30.08,30.00,7,1,15,0.01
2013-6-12,82.2,71.2,59.2,59.6,56.8,53.8,85,63,42,30.12,30.05,10,3,16,0.00
2013-6-13,86.3,73.3,60.1,62.5,56.2,47.5,86,60,27,30.09,29.97,14,3,27,0.00
2013-6-14,83.0,71.9,60.5,61.1,57.4,54.9,88,63,42,30.09,29.91,14,5,26,0.00
2013-6-15,83.0,72.5,62.1,63.2,56.4,46.9,85,60,29,30.03,29.98,10,2,15,0.00
2013-6-16,84.3,71.8,58.3,60.2,52.7,41.5,85,56,26,30.03,29.90,14,4,26,0.00
2013-6-17,84.1,71.2,58.0,65.0,58.7,50.4,79,66,47,29.93,29.79,8,2,15,0.00
2013-6-18,73.3,69.6,66.6,64.2,62.2,60.7,86,78,67,29.85,29.78,6,2,12,0.00
2013-6-19,78.6,71.0,62.9,64.4,56.7,46.4,90,63,37,29.93,29.79,12,5,23,0.02
2013-6-20,78.1,66.2,54.8,59.0,52.5,47.1,82,64,35,30.07,29.93,10,2,22,0.00
2013-6-21,74.9,64.1,55.3,60.7,56.3,51.2,89,77,55,30.15,30.03,8,2,16,0.71
2013-6-22,73.7,65.5,55.7,62.9,58.6,53.1,92,79,64,30.14,30.08,11,2,19,0.01
2013-6-23,74.4,63.4,58.0,63.1,57.4,54.8,90,82,55,30.17,30.09,5,1,9,0.17
2013-6-24,72.8,62.8,51.9,57.2,52.7,47.2,90,71,47,30.22,30.16,10,2,20,0.00
2013-6-25,76.0,66.6,59.2,58.1,52.6,45.2,80,62,43,30.22,30.15,8,2,15,0.00
2013-6-26,77.0,67.1,58.0,56.1,53.4,47.1,83,63,35,30.22,30.17,11,2,20,0.00
2013-6-27,77.7,65.9,55.7,58.9,54.3,49.9,87,69,40,30.22,30.13,9,2,19,0.00
2013-6-28,75.3,66.7,58.3,59.2,56.4,51.9,88,71,48,30.21,30.14,9,2,16,0.00
2013-6-29,79.2,68.3,56.6,61.6,58.0,53.1,89,71,49,30.23,30.17,9,2,18,0.00
2013-6-30,80.9,69.5,58.3,62.2,59.1,54.4,89,71,47,30.19,30.06,11,2,19,0.00
2013-7-1,81.6,70.6,59.8,62.5,55.7,49.2,89,63,35,30.07,29.99,9,2,15,0.01
2013-7-2,79.6,68.9,59.0,62.1,57.6,51.2,89,70,38,30.07,29.98,12,4,21,0.00
2013-7-3,80.1,69.6,62.4,65.1,60.8,57.8,87,75,54,30.08,29.98,9,1,13,0.00
2013-7-4,82.4,73.5,65.2,63.0,61.6,59.3,84,68,50,30.16,30.07,8,2,15,0.00
2013-7-5,86.3,72.1,58.1,65.5,57.9,52.9,89,65,33,30.20,30.15,7,2,14,0.01
2013-7-6,88.0,75.8,62.1,63.7,57.1,52.1,83,56,30,30.19,30.11,9,2,16,0.00
2013-7-7,91.4,79.7,65.2,62.2,58.4,54.6,76,51,31,30.15,30.09,10,2,19,0.00
2013-7-8,88.6,77.3,65.8,61.6,56.4,49.5,79,52,28,30.14,30.08,10,2,18,0.00
2013-7-9,86.7,76.2,61.0,60.9,55.8,52.8,80,52,32,30.13,29.98,11,4,20,0.00
2013-7-10,88.0,73.9,61.3,66.2,59.5,52.7,83,63,30,30.00,29.86,10,2,19,0.00
2013-7-11,84.1,72.3,66.0,67.0,62.6,58.4,85,73,45,29.93,29.86,8,1,14,0.08
2013-7-12,87.0,74.9,60.7,66.4,59.5,52.1,88,63,32,30.00,29.92,9,2,18,0.01
2013-7-13,87.6,76.6,64.2,64.8,61.0,54.0,85,61,35,30.00,29.94,8,2,15,0.00
2013-7-14,87.6,76.5,68.9,64.5,58.6,51.9,78,57,31,30.10,29.97,11,2,20,0.01
2013-7-15,88.2,77.4,63.2,61.8,57.7,54.4,79,53,34,30.10,30.04,11,3,21,0.00
2013-7-16,88.6,74.2,64.5,65.1,59.3,53.7,82,63,31,30.09,30.06,8,1,9,0.00
2013-7-18,78.6,71.1,64.7,64.4,62.4,59.8,84,75,57,30.07,30.02,9,2,18,0.12
2013-7-19,84.3,70.1,61.6,66.7,61.1,57.5,88,75,47,30.07,29.96,13,2,24,0.39
2013-7-20,83.4,71.4,62.6,68.9,63.8,59.0,90,78,59,30.00,29.93,7,1,11,0.04
2013-7-21,89.3,74.3,61.0,66.0,61.9,56.8,88,68,41,30.03,29.98,10,1,25,0.00
2013-7-22,88.2,76.1,62.9,64.7,60.9,54.1,85,63,32,30.03,29.94,8,1,16,0.00
2013-7-23,90.7,74.2,63.4,68.9,63.0,55.4,89,71,31,30.00,29.87,11,2,28,0.06
2013-7-24,89.9,78.1,64.8,65.6,59.1,47.3,84,56,25,30.00,29.92,11,2,21,0.00
2013-7-25,91.0,78.8,65.5,66.6,62.6,57.0,85,61,32,30.00,29.89,11,3,20,0.00
2013-7-26,89.9,78.0,62.3,67.0,59.9,47.9,89,59,25,29.93,29.87,12,3,21,0.00
2013-7-27,88.0,77.2,64.8,71.1,65.2,57.5,79,67,51,29.89,29.72,10,3,19,0.00
2013-7-28,91.0,79.2,68.6,71.8,64.2,54.6,88,63,36,29.91,29.76,13,4,24,0.00
2013-7-29,81.8,74.1,65.2,63.6,60.1,51.9,85,63,40,30.22,29.91,10,2,20,0.20
2013-7-30,84.1,74.1,62.0,64.8,61.6,57.8,87,67,43,30.23,30.11,9,2,18,0.00
2013-7-31,89.7,76.5,64.5,67.4,62.3,56.0,87,65,34,30.14,30.00,10,2,20,0.00
2013-8-1,89.0,74.6,62.7,66.4,61.8,55.3,89,68,33,30.01,29.94,15,3,25,0.00
2013-8-2,91.2,77.7,61.3,65.8,56.6,46.0,85,54,25,30.00,29.93,16,6,28,0.00
2013-8-3,85.7,75.8,63.9,68.2,64.3,58.6,85,69,49,30.09,29.97,10,2,16,0.00
2013-8-4,89.9,77.8,66.6,68.1,64.1,58.5,87,66,37,30.11,30.01,9,2,21,0.00
2013-8-5,89.0,76.5,60.5,66.5,58.4,51.6,87,59,31,30.04,29.90,13,4,28,0.00
2013-8-6,89.3,78.6,68.6,70.9,65.3,57.8,83,65,38,30.00,29.81,10,3,19,0.00
2013-8-7,84.3,74.6,67.8,70.1,65.7,63.1,87,75,52,29.86,29.74,7,1,14,0.02
2013-8-8,79.6,69.0,62.1,65.4,58.8,49.9,88,72,36,30.12,29.85,8,1,12,0.48
2013-8-9,85.9,70.5,56.6,61.0,56.0,50.3,89,64,31,30.15,30.07,8,1,14,0.01
2013-8-10,83.8,72.3,60.7,64.3,59.3,54.9,83,65,41,30.14,30.05,7,2,16,0.00
2013-8-11,89.9,74.8,62.9,65.4,59.6,50.8,89,64,28,30.08,29.98,8,1,16,0.00
2013-8-12,88.4,77.3,64.7,65.1,58.7,54.0,80,56,33,30.02,29.91,9,2,16,0.00
2013-8-13,90.5,75.2,64.8,64.2,61.0,54.3,87,65,30,30.06,29.94,12,2,18,0.41
2013-8-14,86.1,73.1,62.4,67.7,63.0,58.8,89,73,40,30.05,29.99,8,1,13,0.00
2013-8-15,85.1,73.9,62.9,63.7,59.0,54.1,86,63,39,30.08,30.03,8,1,15,0.00
2013-8-16,83.6,73.2,62.7,68.4,64.6,58.3,87,75,54,30.07,29.98,7,2,16,0.00
2013-8-17,83.0,73.9,66.4,67.2,63.4,58.2,87,72,46,30.08,29.98,8,1,14,0.05
2013-8-18,84.7,73.3,61.0,68.2,62.7,56.5,87,71,43,30.05,29.99,11,2,19,0.00
2013-8-19,84.1,73.8,65.5,68.4,64.2,59.2,88,74,46,30.12,30.01,10,2,15,0.02
2013-8-20,89.0,74.4,65.0,65.9,57.5,44.5,86,60,23,30.15,30.06,8,1,14,0.00
2013-8-21,86.1,72.0,58.3,63.2,57.1,50.8,86,63,33,30.11,30.02,7,2,15,0.00
2013-8-22,83.8,73.2,62.6,66.1,62.3,58.4,88,70,44,30.03,29.90,13,5,24,0.00
2013-8-23,84.3,74.7,66.4,68.2,64.9,61.4,87,73,50,29.99,29.92,8,2,16,0.00
2013-8-24,81.8,71.5,64.2,67.7,63.3,58.5,89,77,53,29.98,29.91,12,2,20,0.20
2013-8-25,75.3,67.5,60.5,62.4,60.1,56.7,90,78,54,29.96,29.85,9,2,19,0.00
2013-8-26,73.5,65.1,58.1,63.2,59.2,54.6,89,82,62,29.91,29.85,4,1,10,0.02
2013-8-27,79.4,67.3,61.6,62.9,58.2,54.6,89,74,43,29.98,29.89,6,1,10,0.12
2013-8-28,80.3,67.5,62.6,64.9,60.5,58.4,91,80,50,30.04,29.96,9,1,10,0.80
2013-8-29,80.5,67.9,58.9,63.6,57.1,47.1,91,72,32,30.09,30.03,3,0,9,0.01
2013-8-30,84.1,71.3,59.2,60.4,53.2,46.7,84,57,28,30.11,30.02,5,1,10,0.00
2013-8-31,84.7,71.2,58.1,58.6,53.8,46.6,84,58,28,30.14,30.07,8,1,13,0.00
2013-9-1,87.8,72.2,57.8,58.7,52.5,47.0,85,55,26,30.15,30.08,3,0,13,0.00
2013-9-2,84.3,70.1,59.8,61.3,55.4,43.5,83,63,25,30.21,30.13,7,1,12,0.00
2013-9-3,87.2,72.1,61.2,60.8,49.1,41.4,80,48,22,30.22,30.14,7,2,11,0.00
2013-9-4,82.6,69.1,55.3,63.5,56.8,48.9,84,67,41,30.20,30.06,9,2,18,0.00
2013-9-5,85.5,70.1,55.0,60.2,55.1,48.4,88,63,29,30.07,29.89,7,1,15,0.00
2013-9-6,83.2,69.0,54.7,65.2,56.7,49.4,85,67,35,29.92,29.84,10,2,19,0.00
2013-9-7,78.8,67.4,61.6,66.5,61.2,57.7,89,81,58,30.01,29.92,10,2,19,0.53
2013-9-8,75.4,64.6,58.4,64.9,60.2,55.8,92,86,66,30.18,30.00,4,0,9,0.73
2013-9-9,72.1,65.3,58.9,60.6,58.3,56.0,90,79,62,30.21,30.14,7,1,18,0.01
2013-9-10,76.1,64.3,55.6,63.3,58.2,52.4,91,81,55,30.16,30.04,5,0,10,0.02
2013-9-11,67.6,62.5,56.9,58.1,55.9,52.1,89,80,64,30.12,30.04,4,0,9,0.19
2013-9-12,72.0,64.2,56.5,58.1,55.6,52.5,88,75,55,30.16,30.09,7,1,15,0.01
2013-9-13,76.8,66.8,57.0,60.9,57.4,53.5,88,73,48,30.20,30.14,7,1,12,0.00
2013-9-14,81.2,69.9,59.2,65.0,61.0,56.0,90,75,47,30.18,29.92,10,2,20,0.00
2013-9-15,68.4,65.1,61.3,62.8,59.1,54.5,88,81,68,30.01,29.91,5,1,8,0.04
2013-9-16,78.3,65.4,54.4,62.0,55.7,49.8,89,73,48,30.01,29.78,7,1,11,0.00
2013-9-17,71.5,64.8,59.3,58.6,55.4,51.0,85,72,55,29.95,29.82,8,1,14,0.00
2013-9-18,77.2,65.9,54.2,62.1,56.5,50.6,90,73,46,29.95,29.85,8,1,12,0.00
2013-9-19,76.8,66.5,57.5,62.5,57.6,53.7,89,74,51,29.96,29.86,8,2,13,0.01
2013-9-20,82.0,68.8,56.6,60.4,55.7,51.3,87,65,36,30.10,29.96,7,1,11,0.00
2013-9-21,81.8,68.3,56.9,62.0,56.6,42.0,88,69,25,30.20,30.10,8,1,11,0.00
2013-9-22,81.1,66.2,53.2,62.1,52.0,44.0,90,65,28,30.25,30.18,7,1,11,0.00
2013-9-23,77.2,64.6,51.7,60.2,53.8,46.5,85,70,46,30.20,30.05,12,2,22,0.00
2013-9-24,78.5,66.6,53.6,63.4,58.2,50.4,90,76,50,30.05,29.93,10,3,16,0.00
2013-9-25,80.1,68.4,58.6,65.1,61.0,55.4,91,78,57,29.95,29.89,9,2,18,0.01
2013-9-26,82.8,69.9,58.0,66.4,61.8,54.5,90,77,52,29.96,29.89,10,2,16,0.01
2013-9-27,84.5,70.3,58.4,65.0,59.5,53.5,92,72,35,29.93,29.83,8,1,18,0.02
2013-9-28,79.2,70.5,62.9,66.2,61.1,53.6,87,73,59,29.84,29.63,15,4,23,0.00
2013-9-29,80.7,68.6,61.3,58.9,56.0,51.0,83,66,37,29.74,29.60,7,1,18,0.01
2013-9-30,82.4,67.0,55.1,61.0,55.4,51.6,90,69,36,29.76,29.64,6,1,14,0.01
2013-10-1,83.4,70.8,59.2,65.7,59.9,54.0,84,70,49,29.79,29.69,7,1,11,0.00
2013-10-2,84.3,72.4,64.0,66.6,63.0,58.9,87,74,46,29.92,29.77,8,1,13,0.00
2013-10-3,76.3,71.7,69.3,68.0,66.2,63.9,91,83,67,30.07,29.91,10,4,14,0.03
2013-10-4,70.3,68.1,62.6,66.9,64.3,59.6,90,88,83,30.07,29.91,8,2,14,0.46
2013-10-5,75.3,65.5,58.3,62.8,59.0,54.8,92,81,50,30.18,30.01,5,0,9,0.06
2013-10-6,72.5,63.8,58.1,60.2,57.5,52.9,91,81,53,30.17,30.11,8,1,16,0.13
2013-10-7,74.6,62.7,53.3,60.9,54.8,49.8,92,78,42,30.18,30.10,7,0,11,0.02
2013-10-8,73.7,63.0,54.5,58.5,54.0,50.6,89,74,47,30.20,30.13,8,2,12,0.00
2013-10-9,69.4,65.0,60.9,57.0,55.1,52.1,80,71,55,30.10,30.07,6,1,10,0.01
2013-10-10,63.4,59.8,55.1,57.4,53.4,48.7,88,80,70,30.08,29.86,6,1,12,0.04
2013-10-11,54.7,50.5,48.3,49.0,45.2,40.4,86,82,71,30.04,29.91,1,0,9,0.06
2013-10-12,65.0,55.0,44.6,51.8,46.8,41.6,90,76,50,30.08,29.99,16,4,26,0.02
2013-10-13,70.9,59.5,45.7,54.7,48.5,41.1,85,68,43,30.12,30.05,8,1,11,0.00
2013-10-14,72.8,60.7,50.7,58.9,53.3,47.6,90,78,47,30.11,30.04,8,1,14,0.00
2013-10-15,77.2,64.1,56.5,60.7,55.9,51.9,91,77,42,30.08,29.89,7,1,14,0.01
2013-10-16,79.4,65.0,52.5,59.9,54.6,49.4,91,72,41,30.08,29.98,6,1,11,0.01
2013-10-17,75.8,65.4,57.0,62.1,57.9,52.9,88,77,62,30.11,30.00,8,2,16,0.00
2013-10-18,78.5,66.4,57.2,63.4,59.5,53.8,90,80,52,30.02,29.87,13,3,23,0.00
2013-10-19,75.1,65.5,55.3,66.0,60.0,52.4,92,83,66,30.04,29.94,12,2,20,0.02
2013-10-20,77.9,67.5,58.9,64.7,60.5,56.0,91,80,54,30.07,29.99,9,2,19,0.00
2013-10-21,77.4,64.3,52.5,63.1,58.0,49.7,92,81,59,30.07,29.96,11,3,22,0.01
2013-10-22,77.4,65.9,55.9,63.1,58.7,53.0,91,79,52,29.98,29.77,16,5,26,0.01
2013-10-23,81.6,70.5,60.5,62.3,56.0,43.6,85,64,27,30.00,29.82,11,4,21,0.00
2013-10-24,75.4,64.4,52.9,60.9,54.4,47.9,86,71,48,30.03,29.93,14,4,22,0.00
2013-10-25,76.0,67.1,56.5,64.5,60.2,52.8,89,79,60,30.05,29.97,8,2,16,0.00
2013-10-26,74.6,67.9,61.0,65.1,61.4,56.1,88,80,66,30.09,30.03,7,1,11,0.00
2013-10-27,82.8,65.6,55.6,63.8,56.3,47.2,92,75,30,30.14,30.04,9,1,14,0.00
2013-10-28,86.1,67.9,53.3,63.1,49.9,41.6,86,57,21,30.07,29.87,11,3,22,0.01
2013-10-29,61.3,57.3,53.9,52.8,46.6,40.8,86,68,52,30.08,29.93,2,0,7,0.00
2013-10-30,66.1,54.4,43.5,45.0,39.3,30.7,84,60,27,30.13,30.03,3,0,8,0.00
2013-10-31,69.4,57.1,48.9,45.3,36.7,20.3,72,51,16,30.20,30.12,3,0,10,0.00
2013-11-1,67.9,55.3,43.6,46.4,39.9,34.4,75,57,37,30.19,30.01,7,1,13,0.00
2013-11-2,73.2,58.5,46.7,49.7,42.8,36.3,83,59,27,30.01,29.91,5,0,9,0.00
2013-11-3,67.8,58.1,50.8,54.9,48.2,43.4,85,71,53,30.04,29.91,6,1,14,0.00
2013-11-4,63.2,56.2,47.7,50.7,46.4,43.0,88,71,49,29.97,29.57,9,1,10,0.00
2013-11-5,69.8,55.4,44.2,49.9,44.7,40.0,87,70,37,29.85,29.66,3,0,8,0.00
2013-11-6,76.3,61.2,49.2,58.3,51.4,44.2,87,72,46,30.06,29.85,7,1,13,0.00
2013-11-7,71.8,59.6,51.6,59.5,53.1,48.4,90,80,56,30.07,29.97,9,2,14,0.01
2013-11-8,74.9,58.4,47.0,57.8,51.6,44.5,92,80,42,30.01,29.86,4,0,10,0.01
2013-11-9,63.9,56.2,47.1,50.8,46.2,39.2,85,70,41,30.13,30.01,14,3,23,0.00
2013-11-10,64.7,52.4,41.1,46.7,40.9,34.2,82,66,44,30.08,29.96,6,1,11,0.00
2013-11-11,69.6,55.7,43.9,45.9,37.6,6.8,83,55,9,30.11,30.00,9,2,13,0.00
2013-11-12,72.0,53.5,38.8,46.2,33.8,28.7,75,51,24,30.12,30.04,8,2,19,0.00
2013-11-13,54.4,54.4,54.4,49.3,49.3,49.3,83,83,83,30.12,30.12,0,0,0,0.00
2013-11-14,64.5,53.5,42.9,50.5,41.9,26.0,87,67,30,30.17,30.06,4,1,14,0.00
2013-11-15,58.7,46.9,33.8,34.5,28.0,23.0,75,50,26,30.12,29.94,5,1,15,0.00
2013-11-16,57.2,51.2,43.6,46.9,38.2,30.3,85,62,46,30.12,30.03,11,3,22,0.06
2013-11-17,55.9,52.6,49.2,51.9,49.0,46.1,90,88,83,30.04,29.77,7,2,13,1.21
2013-11-18,54.7,52.3,51.0,51.5,49.0,45.7,91,88,76,29.77,29.46,10,3,15,1.35
2013-11-19,61.3,53.8,46.2,46.4,42.7,38.1,85,67,48,29.76,29.44,12,4,24,0.17
2013-11-20,55.3,43.8,35.6,40.0,26.1,8.6,81,55,16,29.90,29.76,5,1,16,0.00
2013-11-21,55.9,44.1,35.2,36.1,31.6,22.7,84,63,45,29.84,29.51,9,1,14,0.00
2013-11-22,52.5,42.3,36.5,35.1,29.7,22.4,84,63,32,29.73,29.47,5,1,10,0.00
2013-11-23,48.6,39.2,30.4,35.7,30.5,25.3,82,72,54,29.78,29.67,4,1,9,0.00
2013-11-24,54.5,44.5,38.6,37.3,34.3,31.9,81,68,49,29.99,29.77,6,1,9,0.00
2013-11-25,55.9,42.2,32.1,41.5,34.8,27.8,86,76,52,30.16,30.00,5,1,9,0.00
2013-11-26,52.3,40.5,31.6,34.1,26.4,18.2,84,61,27,30.25,30.14,6,1,20,0.01
2013-11-27,45.4,35.5,28.4,32.6,25.0,18.4,84,68,36,30.40,30.19,15,2,29,0.01
2013-11-28,51.3,38.9,31.2,30.4,26.1,21.9,76,61,33,30.41,30.30,6,1,8,0.00
2013-11-29,49.4,37.0,28.7,33.8,27.0,23.9,85,69,41,30.38,30.24,5,0,7,0.00
2013-11-30,46.8,38.2,30.9,36.5,29.6,24.8,83,72,50,30.23,29.90,10,1,15,0.02
2013-12-1,54.1,45.7,32.8,30.9,28.4,26.0,80,52,35,30.06,29.98,5,2,19,0.00
2013-12-2,49.6,41.2,30.1,36.4,30.7,25.2,84,68,45,30.21,30.03,5,0,6,0.00
2013-12-3,62.9,52.4,40.1,36.5,31.9,25.6,74,47,30,30.31,30.22,5,1,9,0.00
2013-12-4,66.8,45.3,31.3,38.1,30.3,25.6,85,60,26,30.32,30.25,4,0,5,0.00
2013-12-5,62.0,44.2,31.8,45.0,33.1,24.8,82,67,33,30.29,30.20,5,0,7,0.00
2013-12-6,57.2,41.9,31.2,42.5,33.1,26.9,88,73,43,30.30,30.22,4,0,7,0.01
2013-12-7,61.2,43.2,29.1,39.9,32.0,24.9,88,68,32,30.28,30.18,5,1,7,0.00
2013-12-8,57.2,43.5,36.3,40.9,35.2,30.4,86,73,50,30.43,30.28,5,1,8,0.00
2013-12-9,56.0,40.4,29.1,45.2,35.3,25.7,89,82,66,30.46,30.38,3,0,5,0.02
2013-12-10,49.1,42.9,35.9,46.3,39.9,32.4,92,89,85,30.54,30.42,5,0,7,0.00
2013-12-11,56.0,44.1,34.0,45.4,37.6,31.1,91,79,56,30.54,30.42,15,3,25,0.01
2013-12-12,60.1,43.5,32.1,44.7,37.1,28.5,90,79,53,30.44,30.33,8,1,14,0.01
2013-12-13,55.0,41.5,30.4,43.7,36.1,27.3,89,81,61,30.35,30.22,4,0,8,0.01
2013-12-14,59.3,46.1,37.9,45.3,37.3,30.5,88,73,42,30.48,30.35,4,0,6,0.01
2013-12-15,59.6,43.7,31.9,43.6,35.6,27.8,86,74,52,30.55,30.44,4,0,6,0.00
2013-12-16,55.7,45.4,34.4,44.1,38.6,30.4,87,78,64,30.55,30.45,6,1,12,0.01
2013-12-17,54.7,47.8,41.2,50.3,43.7,37.0,89,86,83,30.46,30.30,8,1,14,0.01
2013-12-18,58.3,47.7,39.1,47.4,42.4,36.1,90,82,64,30.30,30.08,11,2,13,0.01
2013-12-19,52.3,50.4,48.8,47.6,44.8,41.7,90,81,69,30.08,29.82,12,4,21,0.39
2013-12-20,55.7,48.4,42.9,46.7,34.4,17.2,90,63,25,30.45,29.86,5,1,16,0.21
2013-12-21,55.3,44.7,36.3,36.3,32.6,30.0,84,63,41,30.52,30.42,5,1,8,0.00
2013-12-22,60.4,42.8,32.1,38.6,33.0,27.6,86,71,39,30.45,30.33,8,1,15,0.00
2013-12-23,53.9,42.9,32.1,40.0,34.3,27.5,86,73,50,30.36,30.07,12,2,15,0.01
2013-12-24,55.6,51.2,46.8,45.8,43.0,39.4,81,74,65,30.07,29.62,18,10,31,0.00
2013-12-25,59.3,54.7,46.4,47.5,42.1,36.8,74,63,45,29.61,29.23,18,6,34,0.00
2013-12-26,54.7,46.8,35.0,38.0,31.1,27.0,74,55,38,29.85,29.29,13,2,27,0.00
2013-12-27,58.1,42.0,32.4,40.9,33.4,26.3,85,73,43,29.93,29.76,4,0,6,0.00
2013-12-28,63.5,50.8,43.1,46.1,40.7,36.4,84,69,46,30.03,29.70,10,2,24,0.00
2013-12-29,56.7,45.6,37.9,42.0,36.9,31.6,82,72,50,30.36,30.03,4,0,6,0.00
2013-12-30,53.1,40.5,30.1,38.3,33.0,25.6,86,75,53,30.36,30.23,5,0,8,0.00
2013-12-31,53.6,38.9,26.6,38.5,30.8,22.4,86,74,45,30.23,29.99,9,1,14,0.01
2014-1-1,56.7,47.4,35.2,40.6,35.6,28.1,79,64,50,30.07,29.86,13,4,24,0.00
2014-1-2,61.6,54.6,43.3,47.0,42.2,38.2,83,64,50,29.92,29.76,13,3,21,0.00